sensor_id;sensor_type;location;lat;lon;timestamp;P1;durP1;ratioP1;P2;durP2;ratioP2
5876;SDS011;2964;42.144;24.730;2022-11-20T00:00:29;64.47;;;39.67;;
5876;SDS011;2964;42.144;24.730;2022-11-20T00:02:56;55.50;;;36.67;;
5876;SDS011;2964;42.144;24.730;2022-11-20T00:05:24;59.13;;;38.23;;
5876;SDS011;2964;42.144;24.730;2022-11-20T00:07:50;53.33;;;36.43;;
5876;SDS011;2964;42.144;24.730;2022-11-20T00:10:17;63.60;;;37.47;;
5876;SDS011;2964;42.144;24.730;2022-11-20T00:12:43;52.00;;;36.33;;
5876;SDS011;2964;42.144;24.730;2022-11-20T00:15:10;60.67;;;39.27;;
5876;SDS011;2964;42.144;24.730;2022-11-20T00:17:37;61.10;;;39.30;;
5876;SDS011;2964;42.144;24.730;2022-11-20T00:20:04;57.73;;;39.37;;
5876;SDS011;2964;42.144;24.730;2022-11-20T00:22:32;61.97;;;38.70;;
5876;SDS011;2964;42.144;24.730;2022-11-20T00:24:59;61.03;;;39.60;;
5876;SDS011;2964;42.144;24.730;2022-11-20T00:27:26;55.77;;;37.40;;
5876;SDS011;2964;42.144;24.730;2022-11-20T00:29:52;55.23;;;37.47;;
5876;SDS011;2964;42.144;24.730;2022-11-20T00:32:19;52.40;;;36.33;;
5876;SDS011;2964;42.144;24.730;2022-11-20T00:34:46;56.07;;;36.53;;
5876;SDS011;2964;42.144;24.730;2022-11-20T00:37:12;58.17;;;36.37;;
5876;SDS011;2964;42.144;24.730;2022-11-20T00:39:40;57.33;;;36.23;;
5876;SDS011;2964;42.144;24.730;2022-11-20T00:42:07;57.33;;;37.53;;
5876;SDS011;2964;42.144;24.730;2022-11-20T00:44:34;63.90;;;38.07;;
5876;SDS011;2964;42.144;24.730;2022-11-20T00:47:00;57.17;;;37.47;;
5876;SDS011;2964;42.144;24.730;2022-11-20T00:49:27;55.43;;;36.13;;
5876;SDS011;2964;42.144;24.730;2022-11-20T00:51:53;53.50;;;36.47;;
5876;SDS011;2964;42.144;24.730;2022-11-20T00:54:20;55.63;;;35.20;;
5876;SDS011;2964;42.144;24.730;2022-11-20T00:56:48;52.00;;;36.67;;
5876;SDS011;2964;42.144;24.730;2022-11-20T00:59:15;53.03;;;36.03;;
5876;SDS011;2964;42.144;24.730;2022-11-20T01:01:41;56.60;;;37.43;;
5876;SDS011;2964;42.144;24.730;2022-11-20T01:04:08;48.77;;;35.77;;
5876;SDS011;2964;42.144;24.730;2022-11-20T01:06:35;56.23;;;36.03;;
5876;SDS011;2964;42.144;24.730;2022-11-20T01:09:04;62.57;;;37.10;;
5876;SDS011;2964;42.144;24.730;2022-11-20T01:11:33;56.17;;;36.33;;
5876;SDS011;2964;42.144;24.730;2022-11-20T01:14:03;54.27;;;35.90;;
5876;SDS011;2964;42.144;24.730;2022-11-20T01:16:34;52.87;;;36.87;;
5876;SDS011;2964;42.144;24.730;2022-11-20T01:19:03;51.80;;;36.73;;
5876;SDS011;2964;42.144;24.730;2022-11-20T01:21:32;53.13;;;36.17;;
5876;SDS011;2964;42.144;24.730;2022-11-20T01:24:00;48.10;;;33.80;;
5876;SDS011;2964;42.144;24.730;2022-11-20T01:26:28;53.03;;;33.80;;
5876;SDS011;2964;42.144;24.730;2022-11-20T01:28:56;57.20;;;35.17;;
5876;SDS011;2964;42.144;24.730;2022-11-20T01:31:25;45.23;;;33.60;;
5876;SDS011;2964;42.144;24.730;2022-11-20T01:33:54;45.33;;;30.87;;
5876;SDS011;2964;42.144;24.730;2022-11-20T01:36:23;46.27;;;30.03;;
5876;SDS011;2964;42.144;24.730;2022-11-20T01:38:51;44.20;;;31.53;;
5876;SDS011;2964;42.144;24.730;2022-11-20T01:41:18;40.80;;;29.73;;
5876;SDS011;2964;42.144;24.730;2022-11-20T01:43:59;42.67;;;29.20;;
5876;SDS011;2964;42.144;24.730;2022-11-20T01:46:27;43.73;;;30.80;;
5876;SDS011;2964;42.144;24.730;2022-11-20T01:48:55;44.50;;;30.40;;
5876;SDS011;2964;42.144;24.730;2022-11-20T01:51:25;44.37;;;29.83;;
5876;SDS011;2964;42.144;24.730;2022-11-20T01:53:55;37.97;;;28.10;;
5876;SDS011;2964;42.144;24.730;2022-11-20T01:56:25;44.20;;;29.67;;
5876;SDS011;2964;42.144;24.730;2022-11-20T01:58:54;46.57;;;30.47;;
5876;SDS011;2964;42.144;24.730;2022-11-20T02:01:24;47.87;;;31.43;;
5876;SDS011;2964;42.144;24.730;2022-11-20T02:03:52;49.70;;;30.23;;
5876;SDS011;2964;42.144;24.730;2022-11-20T02:06:21;42.13;;;29.13;;
5876;SDS011;2964;42.144;24.730;2022-11-20T02:08:50;41.97;;;30.43;;
5876;SDS011;2964;42.144;24.730;2022-11-20T02:11:17;42.60;;;29.23;;
5876;SDS011;2964;42.144;24.730;2022-11-20T02:13:44;43.90;;;28.27;;
5876;SDS011;2964;42.144;24.730;2022-11-20T02:16:16;40.83;;;30.07;;
5876;SDS011;2964;42.144;24.730;2022-11-20T02:18:46;39.27;;;29.23;;
5876;SDS011;2964;42.144;24.730;2022-11-20T02:21:18;42.47;;;30.93;;
5876;SDS011;2964;42.144;24.730;2022-11-20T02:24:02;43.00;;;30.10;;
5876;SDS011;2964;42.144;24.730;2022-11-20T02:26:31;43.20;;;29.77;;
5876;SDS011;2964;42.144;24.730;2022-11-20T02:29:01;40.63;;;27.90;;
5876;SDS011;2964;42.144;24.730;2022-11-20T02:31:29;42.17;;;29.03;;
5876;SDS011;2964;42.144;24.730;2022-11-20T02:34:00;47.27;;;29.90;;
5876;SDS011;2964;42.144;24.730;2022-11-20T02:36:27;43.03;;;29.40;;
5876;SDS011;2964;42.144;24.730;2022-11-20T02:38:54;36.50;;;28.23;;
5876;SDS011;2964;42.144;24.730;2022-11-20T02:41:22;38.93;;;25.60;;
5876;SDS011;2964;42.144;24.730;2022-11-20T02:43:57;36.13;;;23.97;;
5876;SDS011;2964;42.144;24.730;2022-11-20T02:46:23;44.77;;;26.43;;
5876;SDS011;2964;42.144;24.730;2022-11-20T02:48:50;35.23;;;24.63;;
5876;SDS011;2964;42.144;24.730;2022-11-20T02:51:17;31.20;;;22.53;;
5876;SDS011;2964;42.144;24.730;2022-11-20T02:53:43;21.73;;;16.80;;
5876;SDS011;2964;42.144;24.730;2022-11-20T02:56:10;32.47;;;22.83;;
5876;SDS011;2964;42.144;24.730;2022-11-20T02:58:38;37.17;;;23.33;;
5876;SDS011;2964;42.144;24.730;2022-11-20T03:01:05;32.97;;;20.07;;
5876;SDS011;2964;42.144;24.730;2022-11-20T03:03:31;33.43;;;22.77;;
5876;SDS011;2964;42.144;24.730;2022-11-20T03:05:58;33.33;;;22.07;;
5876;SDS011;2964;42.144;24.730;2022-11-20T03:08:25;29.97;;;20.33;;
5876;SDS011;2964;42.144;24.730;2022-11-20T03:10:52;29.80;;;19.80;;
5876;SDS011;2964;42.144;24.730;2022-11-20T03:13:19;31.67;;;19.73;;
5876;SDS011;2964;42.144;24.730;2022-11-20T03:15:47;24.47;;;18.40;;
5876;SDS011;2964;42.144;24.730;2022-11-20T03:18:13;24.17;;;19.33;;
5876;SDS011;2964;42.144;24.730;2022-11-20T03:20:40;28.63;;;19.73;;
5876;SDS011;2964;42.144;24.730;2022-11-20T03:23:06;28.10;;;20.20;;
5876;SDS011;2964;42.144;24.730;2022-11-20T03:25:33;28.17;;;19.20;;
5876;SDS011;2964;42.144;24.730;2022-11-20T03:28:00;28.00;;;19.80;;
5876;SDS011;2964;42.144;24.730;2022-11-20T03:30:27;23.67;;;18.47;;
5876;SDS011;2964;42.144;24.730;2022-11-20T03:32:55;23.47;;;16.77;;
5876;SDS011;2964;42.144;24.730;2022-11-20T03:35:21;23.23;;;16.80;;
5876;SDS011;2964;42.144;24.730;2022-11-20T03:37:48;27.57;;;16.93;;
5876;SDS011;2964;42.144;24.730;2022-11-20T03:40:15;30.83;;;18.73;;
5876;SDS011;2964;42.144;24.730;2022-11-20T03:42:42;27.60;;;18.87;;
5876;SDS011;2964;42.144;24.730;2022-11-20T03:45:11;29.70;;;20.13;;
5876;SDS011;2964;42.144;24.730;2022-11-20T03:47:38;25.07;;;19.43;;
5876;SDS011;2964;42.144;24.730;2022-11-20T03:50:07;30.33;;;19.53;;
5876;SDS011;2964;42.144;24.730;2022-11-20T03:52:34;27.10;;;19.27;;
5876;SDS011;2964;42.144;24.730;2022-11-20T03:55:01;33.10;;;20.77;;
5876;SDS011;2964;42.144;24.730;2022-11-20T03:57:28;29.60;;;20.67;;
5876;SDS011;2964;42.144;24.730;2022-11-20T03:59:55;27.37;;;20.90;;
5876;SDS011;2964;42.144;24.730;2022-11-20T04:02:21;27.83;;;20.70;;
5876;SDS011;2964;42.144;24.730;2022-11-20T04:04:48;27.43;;;19.10;;
5876;SDS011;2964;42.144;24.730;2022-11-20T04:07:16;27.37;;;19.50;;
5876;SDS011;2964;42.144;24.730;2022-11-20T04:09:43;31.77;;;20.17;;
5876;SDS011;2964;42.144;24.730;2022-11-20T04:12:09;30.37;;;20.67;;
5876;SDS011;2964;42.144;24.730;2022-11-20T04:14:36;29.17;;;20.43;;
5876;SDS011;2964;42.144;24.730;2022-11-20T04:17:03;28.10;;;20.50;;
5876;SDS011;2964;42.144;24.730;2022-11-20T04:19:30;32.07;;;21.77;;
5876;SDS011;2964;42.144;24.730;2022-11-20T04:21:57;26.67;;;20.07;;
5876;SDS011;2964;42.144;24.730;2022-11-20T04:24:25;34.97;;;18.93;;
5876;SDS011;2964;42.144;24.730;2022-11-20T04:26:52;30.30;;;20.20;;
5876;SDS011;2964;42.144;24.730;2022-11-20T04:29:19;25.97;;;18.87;;
5876;SDS011;2964;42.144;24.730;2022-11-20T04:31:45;25.83;;;18.97;;
5876;SDS011;2964;42.144;24.730;2022-11-20T04:34:12;30.70;;;17.47;;
5876;SDS011;2964;42.144;24.730;2022-11-20T04:36:39;25.17;;;15.03;;
5876;SDS011;2964;42.144;24.730;2022-11-20T04:39:05;25.23;;;14.83;;
5876;SDS011;2964;42.144;24.730;2022-11-20T04:41:34;19.83;;;14.03;;
5876;SDS011;2964;42.144;24.730;2022-11-20T04:44:03;23.97;;;14.77;;
5876;SDS011;2964;42.144;24.730;2022-11-20T04:46:31;18.87;;;11.03;;
5876;SDS011;2964;42.144;24.730;2022-11-20T04:48:59;16.53;;;11.17;;
5876;SDS011;2964;42.144;24.730;2022-11-20T04:51:26;17.93;;;10.13;;
5876;SDS011;2964;42.144;24.730;2022-11-20T04:53:53;18.00;;;10.87;;
5876;SDS011;2964;42.144;24.730;2022-11-20T04:56:19;21.10;;;9.97;;
5876;SDS011;2964;42.144;24.730;2022-11-20T04:58:47;15.23;;;10.07;;
5876;SDS011;2964;42.144;24.730;2022-11-20T05:01:15;13.03;;;10.00;;
5876;SDS011;2964;42.144;24.730;2022-11-20T05:03:43;14.27;;;9.80;;
5876;SDS011;2964;42.144;24.730;2022-11-20T05:06:12;14.67;;;8.70;;
5876;SDS011;2964;42.144;24.730;2022-11-20T05:08:40;11.57;;;8.97;;
5876;SDS011;2964;42.144;24.730;2022-11-20T05:11:08;11.10;;;8.30;;
5876;SDS011;2964;42.144;24.730;2022-11-20T05:13:36;16.40;;;8.43;;
5876;SDS011;2964;42.144;24.730;2022-11-20T05:16:05;15.63;;;9.60;;
5876;SDS011;2964;42.144;24.730;2022-11-20T05:18:33;14.67;;;9.40;;
5876;SDS011;2964;42.144;24.730;2022-11-20T05:21:00;11.60;;;10.13;;
5876;SDS011;2964;42.144;24.730;2022-11-20T05:23:27;19.17;;;9.97;;
5876;SDS011;2964;42.144;24.730;2022-11-20T05:25:55;15.07;;;10.37;;
5876;SDS011;2964;42.144;24.730;2022-11-20T05:28:23;15.23;;;9.77;;
5876;SDS011;2964;42.144;24.730;2022-11-20T05:30:50;18.53;;;9.73;;
5876;SDS011;2964;42.144;24.730;2022-11-20T05:33:18;25.13;;;11.83;;
5876;SDS011;2964;42.144;24.730;2022-11-20T05:35:45;20.40;;;11.43;;
5876;SDS011;2964;42.144;24.730;2022-11-20T05:38:13;25.23;;;12.57;;
5876;SDS011;2964;42.144;24.730;2022-11-20T05:40:39;19.50;;;11.27;;
5876;SDS011;2964;42.144;24.730;2022-11-20T05:43:06;13.80;;;11.40;;
5876;SDS011;2964;42.144;24.730;2022-11-20T05:45:33;17.90;;;11.97;;
5876;SDS011;2964;42.144;24.730;2022-11-20T05:47:59;19.40;;;13.60;;
5876;SDS011;2964;42.144;24.730;2022-11-20T05:50:28;15.70;;;11.00;;
5876;SDS011;2964;42.144;24.730;2022-11-20T05:52:54;21.37;;;12.77;;
5876;SDS011;2964;42.144;24.730;2022-11-20T05:55:23;16.00;;;12.47;;
5876;SDS011;2964;42.144;24.730;2022-11-20T05:57:50;19.77;;;11.87;;
5876;SDS011;2964;42.144;24.730;2022-11-20T06:00:18;17.90;;;12.03;;
5876;SDS011;2964;42.144;24.730;2022-11-20T06:02:45;19.90;;;12.07;;
5876;SDS011;2964;42.144;24.730;2022-11-20T06:05:12;19.93;;;12.10;;
5876;SDS011;2964;42.144;24.730;2022-11-20T06:07:40;18.17;;;12.70;;
5876;SDS011;2964;42.144;24.730;2022-11-20T06:10:07;17.47;;;12.57;;
5876;SDS011;2964;42.144;24.730;2022-11-20T06:12:34;15.07;;;11.43;;
5876;SDS011;2964;42.144;24.730;2022-11-20T06:15:01;16.67;;;12.10;;
5876;SDS011;2964;42.144;24.730;2022-11-20T06:17:27;24.23;;;14.50;;
5876;SDS011;2964;42.144;24.730;2022-11-20T06:19:54;21.37;;;13.57;;
5876;SDS011;2964;42.144;24.730;2022-11-20T06:22:21;22.57;;;13.13;;
5876;SDS011;2964;42.144;24.730;2022-11-20T06:24:49;17.93;;;13.83;;
5876;SDS011;2964;42.144;24.730;2022-11-20T06:27:15;19.70;;;12.93;;
5876;SDS011;2964;42.144;24.730;2022-11-20T06:29:42;20.07;;;12.80;;
5876;SDS011;2964;42.144;24.730;2022-11-20T06:32:09;19.47;;;12.83;;
5876;SDS011;2964;42.144;24.730;2022-11-20T06:34:35;20.87;;;12.77;;
5876;SDS011;2964;42.144;24.730;2022-11-20T06:37:02;16.27;;;13.77;;
5876;SDS011;2964;42.144;24.730;2022-11-20T06:39:29;19.73;;;13.87;;
5876;SDS011;2964;42.144;24.730;2022-11-20T06:41:57;19.53;;;10.43;;
5876;SDS011;2964;42.144;24.730;2022-11-20T06:44:23;15.53;;;10.73;;
5876;SDS011;2964;42.144;24.730;2022-11-20T06:46:50;18.30;;;11.00;;
5876;SDS011;2964;42.144;24.730;2022-11-20T06:49:17;11.87;;;9.40;;
5876;SDS011;2964;42.144;24.730;2022-11-20T06:51:43;14.03;;;10.53;;
5876;SDS011;2964;42.144;24.730;2022-11-20T06:54:10;14.30;;;10.83;;
5876;SDS011;2964;42.144;24.730;2022-11-20T06:56:37;18.17;;;9.87;;
5876;SDS011;2964;42.144;24.730;2022-11-20T06:59:05;16.10;;;10.33;;
5876;SDS011;2964;42.144;24.730;2022-11-20T07:01:32;11.63;;;9.63;;
5876;SDS011;2964;42.144;24.730;2022-11-20T07:04:00;14.57;;;9.57;;
5876;SDS011;2964;42.144;24.730;2022-11-20T07:06:27;12.57;;;8.77;;
5876;SDS011;2964;42.144;24.730;2022-11-20T07:08:53;11.60;;;9.57;;
5876;SDS011;2964;42.144;24.730;2022-11-20T07:11:20;20.07;;;9.37;;
5876;SDS011;2964;42.144;24.730;2022-11-20T07:13:46;11.30;;;8.50;;
5876;SDS011;2964;42.144;24.730;2022-11-20T07:16:15;14.23;;;8.83;;
5876;SDS011;2964;42.144;24.730;2022-11-20T07:18:42;18.67;;;9.90;;
5876;SDS011;2964;42.144;24.730;2022-11-20T07:21:09;15.00;;;9.07;;
5876;SDS011;2964;42.144;24.730;2022-11-20T07:23:36;12.90;;;8.03;;
5876;SDS011;2964;42.144;24.730;2022-11-20T07:26:03;17.23;;;9.30;;
5876;SDS011;2964;42.144;24.730;2022-11-20T07:28:31;15.83;;;8.90;;
5876;SDS011;2964;42.144;24.730;2022-11-20T07:30:57;15.40;;;8.63;;
5876;SDS011;2964;42.144;24.730;2022-11-20T07:33:25;10.63;;;8.47;;
5876;SDS011;2964;42.144;24.730;2022-11-20T07:35:52;11.47;;;8.63;;
5876;SDS011;2964;42.144;24.730;2022-11-20T07:38:19;14.30;;;9.07;;
5876;SDS011;2964;42.144;24.730;2022-11-20T07:40:45;17.43;;;9.93;;
5876;SDS011;2964;42.144;24.730;2022-11-20T07:43:12;17.67;;;9.10;;
5876;SDS011;2964;42.144;24.730;2022-11-20T07:45:39;23.40;;;10.23;;
5876;SDS011;2964;42.144;24.730;2022-11-20T07:48:05;9.90;;;8.90;;
5876;SDS011;2964;42.144;24.730;2022-11-20T07:50:33;14.53;;;9.57;;
5876;SDS011;2964;42.144;24.730;2022-11-20T07:53:01;12.63;;;9.63;;
5876;SDS011;2964;42.144;24.730;2022-11-20T07:55:29;15.73;;;9.40;;
5876;SDS011;2964;42.144;24.730;2022-11-20T07:57:57;12.33;;;9.77;;
5876;SDS011;2964;42.144;24.730;2022-11-20T08:00:24;17.13;;;9.47;;
5876;SDS011;2964;42.144;24.730;2022-11-20T08:02:51;24.67;;;13.77;;
5876;SDS011;2964;42.144;24.730;2022-11-20T08:05:18;11.43;;;9.87;;
5876;SDS011;2964;42.144;24.730;2022-11-20T08:07:46;18.30;;;10.37;;
5876;SDS011;2964;42.144;24.730;2022-11-20T08:10:13;14.77;;;10.00;;
5876;SDS011;2964;42.144;24.730;2022-11-20T08:12:45;16.20;;;9.17;;
5876;SDS011;2964;42.144;24.730;2022-11-20T08:15:30;16.10;;;10.67;;
5876;SDS011;2964;42.144;24.730;2022-11-20T08:18:01;13.90;;;9.40;;
5876;SDS011;2964;42.144;24.730;2022-11-20T08:20:29;11.50;;;10.40;;
5876;SDS011;2964;42.144;24.730;2022-11-20T08:23:01;12.47;;;11.03;;
5876;SDS011;2964;42.144;24.730;2022-11-20T08:25:29;19.93;;;10.17;;
5876;SDS011;2964;42.144;24.730;2022-11-20T08:27:59;14.03;;;10.20;;
5876;SDS011;2964;42.144;24.730;2022-11-20T08:30:26;17.73;;;11.00;;
5876;SDS011;2964;42.144;24.730;2022-11-20T08:32:54;18.87;;;11.27;;
5876;SDS011;2964;42.144;24.730;2022-11-20T08:35:20;32.00;;;11.00;;
5876;SDS011;2964;42.144;24.730;2022-11-20T08:37:48;14.57;;;10.20;;
5876;SDS011;2964;42.144;24.730;2022-11-20T08:40:16;14.43;;;9.90;;
5876;SDS011;2964;42.144;24.730;2022-11-20T08:42:46;14.63;;;10.40;;
5876;SDS011;2964;42.144;24.730;2022-11-20T08:45:13;17.93;;;11.03;;
5876;SDS011;2964;42.144;24.730;2022-11-20T08:47:40;16.33;;;10.43;;
5876;SDS011;2964;42.144;24.730;2022-11-20T08:50:07;18.80;;;9.60;;
5876;SDS011;2964;42.144;24.730;2022-11-20T08:52:34;15.80;;;9.50;;
5876;SDS011;2964;42.144;24.730;2022-11-20T08:55:01;15.00;;;9.63;;
5876;SDS011;2964;42.144;24.730;2022-11-20T08:57:32;13.30;;;9.23;;
5876;SDS011;2964;42.144;24.730;2022-11-20T08:59:59;24.07;;;10.33;;
5876;SDS011;2964;42.144;24.730;2022-11-20T09:02:25;17.57;;;11.23;;
5876;SDS011;2964;42.144;24.730;2022-11-20T09:04:52;25.60;;;14.03;;
5876;SDS011;2964;42.144;24.730;2022-11-20T09:07:19;21.63;;;14.63;;
5876;SDS011;2964;42.144;24.730;2022-11-20T09:09:46;23.20;;;15.00;;
5876;SDS011;2964;42.144;24.730;2022-11-20T09:12:13;14.83;;;11.40;;
5876;SDS011;2964;42.144;24.730;2022-11-20T09:14:41;9.77;;;8.93;;
5876;SDS011;2964;42.144;24.730;2022-11-20T09:17:09;13.40;;;8.97;;
5876;SDS011;2964;42.144;24.730;2022-11-20T09:19:38;12.77;;;8.67;;
5876;SDS011;2964;42.144;24.730;2022-11-20T09:22:05;9.27;;;7.32;;
5876;SDS011;2964;42.144;24.730;2022-11-20T09:24:32;6.68;;;6.13;;
5876;SDS011;2964;42.144;24.730;2022-11-20T09:27:01;15.57;;;6.75;;
5876;SDS011;2964;42.144;24.730;2022-11-20T09:29:28;6.97;;;6.15;;
5876;SDS011;2964;42.144;24.730;2022-11-20T09:31:57;8.52;;;6.60;;
5876;SDS011;2964;42.144;24.730;2022-11-20T09:34:23;8.88;;;5.75;;
5876;SDS011;2964;42.144;24.730;2022-11-20T09:36:50;7.85;;;7.07;;
5876;SDS011;2964;42.144;24.730;2022-11-20T09:39:16;9.20;;;6.63;;
5876;SDS011;2964;42.144;24.730;2022-11-20T09:41:50;15.85;;;12.98;;
5876;SDS011;2964;42.144;24.730;2022-11-20T09:44:30;10.32;;;9.00;;
5876;SDS011;2964;42.144;24.730;2022-11-20T09:47:08;10.23;;;7.60;;
5876;SDS011;2964;42.144;24.730;2022-11-20T09:49:40;8.35;;;6.60;;
5876;SDS011;2964;42.144;24.730;2022-11-20T09:52:20;7.27;;;6.30;;
5876;SDS011;2964;42.144;24.730;2022-11-20T09:54:54;10.10;;;7.20;;
5876;SDS011;2964;42.144;24.730;2022-11-20T09:57:21;8.77;;;7.00;;
5876;SDS011;2964;42.144;24.730;2022-11-20T09:59:56;11.43;;;7.33;;
5876;SDS011;2964;42.144;24.730;2022-11-20T10:02:29;14.07;;;7.17;;
5876;SDS011;2964;42.144;24.730;2022-11-20T10:05:02;17.00;;;7.93;;
5876;SDS011;2964;42.144;24.730;2022-11-20T10:07:34;11.82;;;8.20;;
5876;SDS011;2964;42.144;24.730;2022-11-20T10:10:13;11.35;;;8.05;;
5876;SDS011;2964;42.144;24.730;2022-11-20T10:12:45;13.55;;;8.02;;
5876;SDS011;2964;42.144;24.730;2022-11-20T10:15:27;10.60;;;7.53;;
5876;SDS011;2964;42.144;24.730;2022-11-20T10:18:14;15.90;;;8.27;;
5876;SDS011;2964;42.144;24.730;2022-11-20T10:20:51;8.00;;;7.20;;
5876;SDS011;2964;42.144;24.730;2022-11-20T10:23:27;8.23;;;7.70;;
5876;SDS011;2964;42.144;24.730;2022-11-20T10:26:16;12.57;;;8.27;;
5876;SDS011;2964;42.144;24.730;2022-11-20T10:28:51;11.47;;;8.63;;
5876;SDS011;2964;42.144;24.730;2022-11-20T10:31:30;9.87;;;8.30;;
5876;SDS011;2964;42.144;24.730;2022-11-20T10:34:02;10.77;;;8.17;;
5876;SDS011;2964;42.144;24.730;2022-11-20T10:36:34;13.50;;;8.33;;
5876;SDS011;2964;42.144;24.730;2022-11-20T10:39:05;13.07;;;9.33;;
5876;SDS011;2964;42.144;24.730;2022-11-20T10:41:41;11.37;;;9.00;;
5876;SDS011;2964;42.144;24.730;2022-11-20T10:44:10;20.73;;;9.37;;
5876;SDS011;2964;42.144;24.730;2022-11-20T10:47:01;14.27;;;8.70;;
5876;SDS011;2964;42.144;24.730;2022-11-20T10:49:30;19.20;;;9.43;;
5876;SDS011;2964;42.144;24.730;2022-11-20T10:52:02;18.27;;;9.20;;
5876;SDS011;2964;42.144;24.730;2022-11-20T10:54:36;25.23;;;11.30;;
5876;SDS011;2964;42.144;24.730;2022-11-20T10:57:12;14.40;;;9.20;;
5876;SDS011;2964;42.144;24.730;2022-11-20T10:59:59;15.30;;;9.63;;
5876;SDS011;2964;42.144;24.730;2022-11-20T11:02:34;10.70;;;9.60;;
5876;SDS011;2964;42.144;24.730;2022-11-20T11:05:10;14.23;;;10.33;;
5876;SDS011;2964;42.144;24.730;2022-11-20T11:07:48;12.10;;;9.40;;
5876;SDS011;2964;42.144;24.730;2022-11-20T11:10:18;19.90;;;11.37;;
5876;SDS011;2964;42.144;24.730;2022-11-20T11:12:50;20.17;;;10.23;;
5876;SDS011;2964;42.144;24.730;2022-11-20T11:15:24;14.37;;;9.90;;
5876;SDS011;2964;42.144;24.730;2022-11-20T11:17:52;11.13;;;8.93;;
5876;SDS011;2964;42.144;24.730;2022-11-20T11:20:21;15.30;;;10.37;;
5876;SDS011;2964;42.144;24.730;2022-11-20T11:22:49;25.87;;;11.23;;
5876;SDS011;2964;42.144;24.730;2022-11-20T11:28:04;25.43;;;15.20;;
5876;SDS011;2964;42.144;24.730;2022-11-20T11:30:45;22.17;;;13.03;;
5876;SDS011;2964;42.144;24.730;2022-11-20T11:33:18;21.27;;;10.77;;
5876;SDS011;2964;42.144;24.730;2022-11-20T11:35:47;22.93;;;10.60;;
5876;SDS011;2964;42.144;24.730;2022-11-20T11:38:19;26.73;;;11.23;;
5876;SDS011;2964;42.144;24.730;2022-11-20T11:40:48;29.83;;;14.30;;
5876;SDS011;2964;42.144;24.730;2022-11-20T11:43:17;42.23;;;16.27;;
5876;SDS011;2964;42.144;24.730;2022-11-20T11:46:05;20.77;;;12.20;;
5876;SDS011;2964;42.144;24.730;2022-11-20T11:48:57;148.37;;;59.17;;
5876;SDS011;2964;42.144;24.730;2022-11-20T11:51:27;87.53;;;39.87;;
5876;SDS011;2964;42.144;24.730;2022-11-20T11:53:58;277.73;;;119.33;;
5876;SDS011;2964;42.144;24.730;2022-11-20T11:56:26;47.43;;;22.33;;
5876;SDS011;2964;42.144;24.730;2022-11-20T11:58:54;46.83;;;16.33;;
5876;SDS011;2964;42.144;24.730;2022-11-20T12:01:28;25.63;;;10.47;;
5876;SDS011;2964;42.144;24.730;2022-11-20T12:04:00;14.97;;;10.10;;
5876;SDS011;2964;42.144;24.730;2022-11-20T12:06:35;20.00;;;9.90;;
5876;SDS011;2964;42.144;24.730;2022-11-20T12:09:05;16.50;;;10.30;;
5876;SDS011;2964;42.144;24.730;2022-11-20T12:11:37;18.67;;;11.57;;
5876;SDS011;2964;42.144;24.730;2022-11-20T12:14:11;14.27;;;9.27;;
5876;SDS011;2964;42.144;24.730;2022-11-20T12:16:44;18.83;;;10.27;;
5876;SDS011;2964;42.144;24.730;2022-11-20T12:19:12;11.57;;;8.97;;
5876;SDS011;2964;42.144;24.730;2022-11-20T12:21:45;13.80;;;9.57;;
5876;SDS011;2964;42.144;24.730;2022-11-20T12:24:25;19.13;;;10.60;;
5876;SDS011;2964;42.144;24.730;2022-11-20T12:27:05;15.50;;;10.00;;
5876;SDS011;2964;42.144;24.730;2022-11-20T12:30:01;14.57;;;10.47;;
5876;SDS011;2964;42.144;24.730;2022-11-20T12:32:47;19.20;;;10.90;;
5876;SDS011;2964;42.144;24.730;2022-11-20T12:35:42;20.73;;;10.23;;
5876;SDS011;2964;42.144;24.730;2022-11-20T12:38:33;19.87;;;10.63;;
5876;SDS011;2964;42.144;24.730;2022-11-20T12:41:19;31.83;;;11.37;;
5876;SDS011;2964;42.144;24.730;2022-11-20T12:44:18;20.70;;;11.63;;
5876;SDS011;2964;42.144;24.730;2022-11-20T12:47:15;17.40;;;10.87;;
5876;SDS011;2964;42.144;24.730;2022-11-20T12:49:51;16.80;;;8.80;;
5876;SDS011;2964;42.144;24.730;2022-11-20T12:52:27;21.50;;;10.00;;
5876;SDS011;2964;42.144;24.730;2022-11-20T12:57:58;25.83;;;11.50;;
5876;SDS011;2964;42.144;24.730;2022-11-20T13:00:31;27.43;;;11.67;;
5876;SDS011;2964;42.144;24.730;2022-11-20T13:03:13;27.37;;;12.17;;
5876;SDS011;2964;42.144;24.730;2022-11-20T13:05:53;22.87;;;12.90;;
5876;SDS011;2964;42.144;24.730;2022-11-20T13:08:26;25.80;;;11.70;;
5876;SDS011;2964;42.144;24.730;2022-11-20T13:10:58;19.80;;;12.60;;
5876;SDS011;2964;42.144;24.730;2022-11-20T13:13:32;20.40;;;10.10;;
5876;SDS011;2964;42.144;24.730;2022-11-20T13:16:08;34.67;;;12.27;;
5876;SDS011;2964;42.144;24.730;2022-11-20T13:18:43;25.80;;;11.30;;
5876;SDS011;2964;42.144;24.730;2022-11-20T13:21:17;26.17;;;11.27;;
5876;SDS011;2964;42.144;24.730;2022-11-20T13:23:46;20.20;;;10.87;;
5876;SDS011;2964;42.144;24.730;2022-11-20T13:26:16;18.93;;;9.90;;
5876;SDS011;2964;42.144;24.730;2022-11-20T13:28:45;21.30;;;10.63;;
5876;SDS011;2964;42.144;24.730;2022-11-20T13:31:24;18.43;;;9.57;;
5876;SDS011;2964;42.144;24.730;2022-11-20T13:33:56;25.77;;;9.20;;
5876;SDS011;2964;42.144;24.730;2022-11-20T13:36:24;18.17;;;8.03;;
5876;SDS011;2964;42.144;24.730;2022-11-20T13:38:53;12.77;;;7.63;;
5876;SDS011;2964;42.144;24.730;2022-11-20T13:41:25;15.47;;;7.77;;
5876;SDS011;2964;42.144;24.730;2022-11-20T13:43:58;15.90;;;8.20;;
5876;SDS011;2964;42.144;24.730;2022-11-20T13:46:35;19.07;;;7.07;;
5876;SDS011;2964;42.144;24.730;2022-11-20T13:49:06;18.93;;;6.67;;
5876;SDS011;2964;42.144;24.730;2022-11-20T13:51:37;19.40;;;6.30;;
5876;SDS011;2964;42.144;24.730;2022-11-20T13:54:16;17.20;;;6.50;;
5876;SDS011;2964;42.144;24.730;2022-11-20T13:56:53;16.13;;;5.97;;
5876;SDS011;2964;42.144;24.730;2022-11-20T13:59:32;14.50;;;6.67;;
5876;SDS011;2964;42.144;24.730;2022-11-20T14:02:10;17.53;;;5.57;;
5876;SDS011;2964;42.144;24.730;2022-11-20T14:04:41;16.80;;;5.47;;
5876;SDS011;2964;42.144;24.730;2022-11-20T14:07:11;12.77;;;5.00;;
5876;SDS011;2964;42.144;24.730;2022-11-20T14:09:38;14.07;;;4.73;;
5876;SDS011;2964;42.144;24.730;2022-11-20T14:12:14;11.17;;;3.90;;
5876;SDS011;2964;42.144;24.730;2022-11-20T14:14:48;3.73;;;3.53;;
5876;SDS011;2964;42.144;24.730;2022-11-20T14:17:17;7.67;;;3.97;;
5876;SDS011;2964;42.144;24.730;2022-11-20T14:19:45;3.50;;;3.17;;
5876;SDS011;2964;42.144;24.730;2022-11-20T14:22:17;4.37;;;3.40;;
5876;SDS011;2964;42.144;24.730;2022-11-20T14:24:46;4.03;;;3.73;;
5876;SDS011;2964;42.144;24.730;2022-11-20T14:27:15;3.40;;;3.20;;
5876;SDS011;2964;42.144;24.730;2022-11-20T14:29:44;3.77;;;3.57;;
5876;SDS011;2964;42.144;24.730;2022-11-20T14:32:14;3.53;;;3.33;;
5876;SDS011;2964;42.144;24.730;2022-11-20T14:34:43;5.43;;;2.83;;
5876;SDS011;2964;42.144;24.730;2022-11-20T14:37:12;9.43;;;3.23;;
5876;SDS011;2964;42.144;24.730;2022-11-20T14:39:47;3.43;;;3.20;;
5876;SDS011;2964;42.144;24.730;2022-11-20T14:42:18;3.70;;;3.50;;
5876;SDS011;2964;42.144;24.730;2022-11-20T14:44:47;4.23;;;3.93;;
5876;SDS011;2964;42.144;24.730;2022-11-20T14:47:17;4.03;;;3.47;;
5876;SDS011;2964;42.144;24.730;2022-11-20T14:49:48;3.27;;;2.97;;
5876;SDS011;2964;42.144;24.730;2022-11-20T14:52:16;4.33;;;3.40;;
5876;SDS011;2964;42.144;24.730;2022-11-20T14:54:44;4.87;;;3.90;;
5876;SDS011;2964;42.144;24.730;2022-11-20T14:57:24;8.63;;;3.47;;
5876;SDS011;2964;42.144;24.730;2022-11-20T15:00:03;4.37;;;3.97;;
5876;SDS011;2964;42.144;24.730;2022-11-20T15:02:31;6.30;;;3.60;;